Time;durP1;ratioP1;P1;durP2;ratioP2;P2;SDS_P1;SDS_P2;PMS_P1;PMS_P2;Temp;Humidity;BMP_temperature;BMP_pressure;BME280_temperature;BME280_humidity;BME280_pressure;Samples;Min_cycle;Max_cycle;Signal;HPM_P1;HPM_P2
2023/03/20 00:00:40;;;;;;;3.93;3.53;;;11.00;1.00;;;;;;5027778;28;20603;-71
2023/03/20 00:03:05;;;;;;;3.13;2.80;;;11.00;1.00;;;;;;5030199;28;20662;-75
2023/03/20 00:05:31;;;;;;;3.80;2.83;;;11.00;1.00;;;;;;5027757;28;20479;-74
2023/03/20 00:07:57;;;;;;;3.17;2.87;;;11.20;1.00;;;;;;5028945;28;20206;-73
2023/03/20 00:10:33;;;;;;;4.37;3.07;;;11.10;1.00;;;;;;5030136;28;20452;-74
2023/03/20 00:12:59;;;;;;;3.23;2.63;;;11.00;1.00;;;;;;5030166;28;20200;-74
2023/03/20 00:15:35;;;;;;;6.90;2.97;;;10.80;1.00;;;;;;5031289;28;20504;-74
2023/03/20 00:18:00;;;;;;;3.70;3.17;;;11.00;1.00;;;;;;5022964;28;20173;-73
2023/03/20 00:20:26;;;;;;;6.50;3.63;;;11.00;1.00;;;;;;5030216;28;20463;-74
2023/03/20 00:22:52;;;;;;;4.17;3.37;;;11.10;1.00;;;;;;5028923;28;20265;-73
2023/03/20 00:25:21;;;;;;;3.20;2.90;;;11.00;1.00;;;;;;5030140;28;20566;-73
2023/03/20 00:27:47;;;;;;;3.57;3.10;;;11.10;1.00;;;;;;5030523;28;20214;-74
2023/03/20 00:30:28;;;;;;;4.70;3.07;;;11.10;1.00;;;;;;5025728;28;20554;-74
2023/03/20 00:32:55;;;;;;;8.73;2.97;;;11.10;1.00;;;;;;5029380;28;20189;-74
2023/03/20 00:35:24;;;;;;;8.90;5.90;;;11.10;1.00;;;;;;5022549;28;20436;-73
2023/03/20 00:37:51;;;;;;;6.77;5.50;;;11.10;1.00;;;;;;5029311;28;20451;-73
2023/03/20 00:40:17;;;;;;;5.97;4.77;;;11.10;1.00;;;;;;5024666;28;20443;-75
2023/03/20 00:42:46;;;;;;;5.67;4.70;;;11.10;1.00;;;;;;5030973;28;20922;-73
2023/03/20 00:45:16;;;;;;;6.40;4.10;;;11.10;1.00;;;;;;5021998;28;20193;-73
2023/03/20 00:47:42;;;;;;;3.60;2.70;;;11.10;1.00;;;;;;5030545;28;20982;-74
2023/03/20 00:50:20;;;;;;;5.47;3.60;;;11.10;1.00;;;;;;5029366;28;21013;-74
2023/03/20 00:52:46;;;;;;;5.43;3.80;;;11.00;1.00;;;;;;5030951;28;20454;-74
2023/03/20 00:55:12;;;;;;;10.87;6.60;;;11.00;1.00;;;;;;5024412;28;20432;-73
2023/03/20 00:57:42;;;;;;;7.83;5.60;;;11.00;1.00;;;;;;5030699;28;20435;-71
2023/03/20 01:00:25;;;;;;;9.33;7.03;;;11.00;1.00;;;;;;5029730;28;20225;-74
2023/03/20 01:02:53;;;;;;;10.70;8.50;;;11.00;1.00;;;;;;5031156;28;20421;-74
2023/03/20 01:05:19;;;;;;;8.30;6.73;;;11.00;1.00;;;;;;5025272;28;20451;-74
2023/03/20 01:07:46;;;;;;;6.13;5.00;;;11.00;1.00;;;;;;5029655;28;20460;-73
2023/03/20 01:10:12;;;;;;;5.17;3.67;;;11.00;1.00;;;;;;5027125;28;20444;-74
2023/03/20 01:12:39;;;;;;;6.90;4.07;;;10.90;1.00;;;;;;5029443;28;20785;-73
2023/03/20 01:15:22;;;;;;;3.40;3.10;;;10.90;1.00;;;;;;5026565;28;20818;-73
2023/03/20 01:17:48;;;;;;;3.70;3.20;;;10.90;1.00;;;;;;5019521;28;20447;-74
2023/03/20 01:20:16;;;;;;;3.87;2.83;;;10.90;1.00;;;;;;5023007;28;20556;-74
2023/03/20 01:22:42;;;;;;;3.90;3.00;;;10.90;1.00;;;;;;5025204;28;20957;-73
2023/03/20 01:25:08;;;;;;;2.60;2.40;;;10.90;1.00;;;;;;5027790;28;20455;-72
2023/03/20 01:27:34;;;;;;;3.53;2.97;;;10.90;1.00;;;;;;5025697;28;20207;-73
2023/03/20 01:29:59;;;;;;;4.20;2.90;;;10.90;1.00;;;;;;5028825;28;20440;-73
2023/03/20 01:32:25;;;;;;;3.90;2.80;;;11.00;1.00;;;;;;5027414;28;20174;-73
2023/03/20 01:34:51;;;;;;;3.20;2.60;;;11.00;1.00;;;;;;5020802;28;20233;-74
2023/03/20 01:37:25;;;;;;;4.00;2.37;;;11.00;1.00;;;;;;5021188;28;20178;-73
2023/03/20 01:39:51;;;;;;;3.70;2.93;;;11.00;1.00;;;;;;5026463;28;20459;-74
2023/03/20 01:42:17;;;;;;;3.07;2.77;;;11.00;1.00;;;;;;5027393;28;20466;-73
2023/03/20 01:44:43;;;;;;;3.53;2.70;;;11.00;1.00;;;;;;5024656;28;20444;-73
2023/03/20 01:47:19;;;;;;;3.17;2.67;;;11.00;1.00;;;;;;5027181;28;20580;-74
2023/03/20 01:50:18;;;;;;;2.90;2.40;;;11.00;1.00;;;;;;5026884;28;20205;-73
2023/03/20 01:52:45;;;;;;;2.73;2.40;;;11.00;1.00;;;;;;5027961;28;20472;-74
2023/03/20 01:55:11;;;;;;;3.33;2.63;;;11.00;1.00;;;;;;5027410;28;20417;-73
2023/03/20 01:57:37;;;;;;;4.57;2.57;;;11.00;1.00;;;;;;5027509;28;21135;-75
2023/03/20 02:00:09;;;;;;;2.93;2.27;;;11.00;1.00;;;;;;5027885;28;20202;-74
2023/03/20 02:02:36;;;;;;;2.23;2.03;;;11.00;1.00;;;;;;5025461;28;20443;-74
2023/03/20 02:05:07;;;;;;;3.53;2.50;;;11.00;1.00;;;;;;5027729;28;20913;-73
2023/03/20 02:07:34;;;;;;;5.23;2.60;;;11.10;1.00;;;;;;5022704;28;20525;-74
2023/03/20 02:10:09;;;;;;;6.13;2.70;;;11.10;1.00;;;;;;5026187;28;20483;-74
2023/03/20 02:12:35;;;;;;;2.77;2.30;;;11.10;1.00;;;;;;5025810;28;20440;-74
2023/03/20 02:15:02;;;;;;;2.73;2.13;;;11.10;1.00;;;;;;5020152;28;20804;-72
2023/03/20 02:17:27;;;;;;;2.60;2.20;;;11.00;1.00;;;;;;5021147;28;20603;-73
2023/03/20 02:20:15;;;;;;;3.20;2.67;;;11.00;1.00;;;;;;5025838;28;20460;-74
2023/03/20 02:23:08;;;;;;;2.60;2.40;;;11.00;1.00;;;;;;5023572;28;20189;-74
2023/03/20 02:25:46;;;;;;;2.80;2.50;;;11.00;1.00;;;;;;5025100;28;20452;-75
2023/03/20 02:28:41;;;;;;;3.03;2.33;;;11.00;1.00;;;;;;5022016;28;20463;-73
2023/03/20 02:31:32;;;;;;;3.13;2.33;;;10.90;1.00;;;;;;5027642;28;20524;-74
2023/03/20 02:34:01;;;;;;;4.50;2.53;;;11.00;1.00;;;;;;5028910;28;20842;-73
2023/03/20 02:37:05;;;;;;;3.30;2.47;;;11.00;1.00;;;;;;5027336;28;20443;-74
2023/03/20 02:40:05;;;;;;;4.47;2.60;;;11.00;1.00;;;;;;5021470;28;20474;-73
2023/03/20 02:42:39;;;;;;;3.33;2.80;;;10.90;1.00;;;;;;5024236;28;20443;-74
2023/03/20 02:45:21;;;;;;;3.33;2.77;;;11.00;1.00;;;;;;5022198;28;20440;-74
2023/03/20 02:47:46;;;;;;;3.40;2.70;;;10.90;1.00;;;;;;5027301;28;20518;-73
2023/03/20 02:50:25;;;;;;;3.73;2.70;;;10.90;1.00;;;;;;5027155;28;21146;-74
2023/03/20 02:53:05;;;;;;;3.27;2.97;;;10.90;1.00;;;;;;5027655;28;20209;-75
2023/03/20 02:55:36;;;;;;;3.20;2.83;;;10.90;1.00;;;;;;5028742;28;20412;-73
2023/03/20 02:58:19;;;;;;;3.10;2.80;;;10.90;1.00;;;;;;5025520;28;20440;-73
2023/03/20 03:01:09;;;;;;;4.83;3.07;;;10.90;1.00;;;;;;5021383;28;20522;-73
2023/03/20 03:03:45;;;;;;;3.20;2.80;;;11.00;1.00;;;;;;5021179;28;20490;-74
2023/03/20 03:06:31;;;;;;;4.00;3.00;;;11.00;1.00;;;;;;5027011;28;20810;-73
2023/03/20 03:09:10;;;;;;;4.17;3.20;;;11.00;1.00;;;;;;5028094;28;20994;-74
2023/03/20 03:11:42;;;;;;;4.57;3.17;;;11.00;1.00;;;;;;5028107;28;20456;-74
2023/03/20 03:14:14;;;;;;;9.90;3.40;;;11.00;1.00;;;;;;5021948;28;20436;-73
2023/03/20 03:16:40;;;;;;;4.93;3.40;;;10.90;1.00;;;;;;5027811;28;20444;-73
2023/03/20 03:19:10;;;;;;;3.60;3.27;;;10.90;1.00;;;;;;5029088;28;20429;-73
2023/03/20 03:21:38;;;;;;;4.40;3.50;;;10.90;1.00;;;;;;5028063;28;20429;-74
2023/03/20 03:24:05;;;;;;;4.20;3.37;;;10.90;1.00;;;;;;5019637;28;20503;-73
2023/03/20 03:26:36;;;;;;;5.60;3.60;;;10.90;1.00;;;;;;5026313;28;20855;-73
2023/03/20 03:29:14;;;;;;;6.40;3.80;;;10.90;1.00;;;;;;5027134;28;20471;-73
2023/03/20 03:31:41;;;;;;;4.10;3.63;;;10.90;1.00;;;;;;5019424;28;20437;-73
2023/03/20 03:34:12;;;;;;;4.70;4.00;;;11.00;1.00;;;;;;5027180;28;20436;-73
2023/03/20 03:37:01;;;;;;;4.20;3.40;;;11.00;1.00;;;;;;5027863;28;20436;-74
2023/03/20 03:39:35;;;;;;;5.40;3.83;;;10.90;1.00;;;;;;5021413;28;20452;-72
2023/03/20 03:42:21;;;;;;;4.00;3.60;;;10.90;1.00;;;;;;5027226;28;20439;-74
2023/03/20 03:44:55;;;;;;;4.03;3.63;;;10.90;1.00;;;;;;5012760;28;20432;-73
2023/03/20 03:47:48;;;;;;;5.47;3.90;;;10.90;1.00;;;;;;5025990;28;20460;-74
2023/03/20 03:50:19;;;;;;;4.90;3.63;;;10.90;1.00;;;;;;5019478;28;20846;-74
2023/03/20 03:52:47;;;;;;;4.30;3.70;;;10.80;1.00;;;;;;5029364;28;20456;-74
2023/03/20 03:55:22;;;;;;;5.87;3.77;;;10.80;1.00;;;;;;5022498;28;20416;-74
2023/03/20 03:57:55;;;;;;;5.10;4.00;;;10.80;1.00;;;;;;5031113;28;20444;-71
2023/03/20 04:00:22;;;;;;;4.20;3.53;;;10.70;1.00;;;;;;5081705;22;20566;-71
2023/03/20 04:02:52;;;;;;;6.20;4.10;;;10.80;1.00;;;;;;5029892;28;20490;-69
2023/03/20 04:05:20;;;;;;;5.10;4.27;;;10.80;1.00;;;;;;5029356;28;20531;-71
2023/03/20 04:07:47;;;;;;;5.57;4.50;;;10.80;1.00;;;;;;5030292;28;20467;-71
2023/03/20 04:10:14;;;;;;;4.83;3.93;;;10.80;1.00;;;;;;5029444;28;20507;-71
2023/03/20 04:12:42;;;;;;;5.00;4.10;;;10.80;1.00;;;;;;5030105;28;20440;-71
2023/03/20 04:15:08;;;;;;;6.93;3.90;;;10.80;1.00;;;;;;5028509;28;20450;-70
2023/03/20 04:17:34;;;;;;;5.47;3.50;;;10.80;1.00;;;;;;5028458;28;20504;-71
2023/03/20 04:20:00;;;;;;;4.93;3.90;;;10.80;1.00;;;;;;5030842;28;20548;-71
2023/03/20 04:22:26;;;;;;;5.53;4.30;;;;;;;;;;5030697;28;20662;-71
2023/03/20 04:24:52;;;;;;;5.03;4.10;;;10.80;1.00;;;;;;5029313;28;20819;-71
2023/03/20 04:27:18;;;;;;;6.07;4.60;;;10.80;1.00;;;;;;5030122;28;20510;-70
2023/03/20 04:29:44;;;;;;;5.50;4.10;;;10.80;1.00;;;;;;5029294;28;20300;-72
2023/03/20 04:32:10;;;;;;;5.20;4.20;;;10.80;1.00;;;;;;5030368;28;20939;-70
2023/03/20 04:34:35;;;;;;;5.57;4.50;;;10.80;1.00;;;;;;5029451;28;20181;-71
2023/03/20 04:37:01;;;;;;;6.37;4.90;;;10.80;1.00;;;;;;5030416;28;20337;-71
2023/03/20 04:39:27;;;;;;;5.90;5.00;;;10.80;1.00;;;;;;5023064;28;20201;-70
2023/03/20 04:41:53;;;;;;;6.03;4.77;;;10.80;1.00;;;;;;5028079;28;20567;-71
2023/03/20 04:44:19;;;;;;;6.83;5.20;;;10.80;1.00;;;;;;5029365;28;20723;-71
2023/03/20 04:46:45;;;;;;;6.10;4.83;;;10.70;1.00;;;;;;5029687;28;20515;-71
2023/03/20 04:49:10;;;;;;;5.90;5.10;;;10.70;1.00;;;;;;5029942;28;20224;-71
2023/03/20 04:51:36;;;;;;;8.80;5.67;;;10.70;1.00;;;;;;5028988;28;20503;-71
2023/03/20 04:54:01;;;;;;;6.57;5.40;;;10.70;1.00;;;;;;5026412;28;20188;-71
2023/03/20 04:56:27;;;;;;;6.27;5.10;;;10.70;1.00;;;;;;5030817;28;20189;-71
2023/03/20 04:58:52;;;;;;;7.50;4.90;;;10.70;1.00;;;;;;5027389;28;20499;-71
2023/03/20 05:01:18;;;;;;;7.23;5.37;;;10.60;1.00;;;;;;5030614;28;20197;-72
2023/03/20 05:03:43;;;;;;;7.80;5.47;;;10.70;1.00;;;;;;5028500;28;20682;-71
2023/03/20 05:06:09;;;;;;;8.57;5.60;;;10.70;1.00;;;;;;5028743;28;20189;-72
2023/03/20 05:08:35;;;;;;;8.17;5.67;;;10.70;1.00;;;;;;5027760;28;20217;-72
2023/03/20 05:11:01;;;;;;;8.10;5.50;;;10.70;1.00;;;;;;5028701;28;20178;-71
2023/03/20 05:13:26;;;;;;;7.80;5.50;;;10.70;1.00;;;;;;5030097;28;20806;-72
2023/03/20 05:15:52;;;;;;;8.97;5.53;;;10.70;1.00;;;;;;5029057;28;20260;-71
2023/03/20 05:18:17;;;;;;;10.07;5.20;;;10.70;1.00;;;;;;5029079;28;20191;-71
2023/03/20 05:20:43;;;;;;;6.97;5.77;;;10.70;1.00;;;;;;5021492;28;20189;-71
2023/03/20 05:23:08;;;;;;;9.83;6.23;;;10.70;1.00;;;;;;5028137;28;20673;-71
2023/03/20 05:25:34;;;;;;;8.33;5.63;;;10.70;1.00;;;;;;5029148;28;20196;-71
2023/03/20 05:27:59;;;;;;;14.73;6.10;;;10.70;1.00;;;;;;5027539;28;20217;-70
2023/03/20 05:30:25;;;;;;;11.23;7.17;;;10.70;1.00;;;;;;5024176;28;20201;-71
2023/03/20 05:32:51;;;;;;;9.00;6.30;;;10.70;1.00;;;;;;5026011;28;20182;-71
2023/03/20 05:35:17;;;;;;;6.73;5.40;;;10.70;1.00;;;;;;5027362;28;20178;-71
2023/03/20 05:37:43;;;;;;;7.93;6.13;;;10.70;1.00;;;;;;5028276;28;20433;-72
2023/03/20 05:40:14;;;;;;;6.30;5.50;;;10.70;1.00;;;;;;5027024;28;21024;-71
2023/03/20 05:42:40;;;;;;;7.60;5.83;;;10.70;1.00;;;;;;5026000;28;20214;-71
2023/03/20 05:45:06;;;;;;;9.30;6.30;;;10.80;1.00;;;;;;5029219;28;20466;-71
2023/03/20 05:47:31;;;;;;;6.93;5.57;;;10.80;1.00;;;;;;5028468;28;20663;-71
2023/03/20 05:49:57;;;;;;;8.60;5.87;;;10.80;1.00;;;;;;5027693;28;20463;-74
2023/03/20 05:52:22;;;;;;;8.27;5.90;;;10.80;1.00;;;;;;5027942;28;20193;-73
2023/03/20 05:54:48;;;;;;;13.73;5.70;;;10.80;1.00;;;;;;5028556;28;20185;-74
2023/03/20 05:57:14;;;;;;;9.07;6.27;;;10.90;1.00;;;;;;5025515;28;20193;-74
2023/03/20 05:59:40;;;;;;;7.73;5.83;;;11.10;1.00;;;;;;5028198;28;20205;-74
2023/03/20 06:02:05;;;;;;;8.67;6.90;;;10.90;1.00;;;;;;5026015;28;20578;-74
2023/03/20 06:04:31;;;;;;;8.60;6.60;;;11.00;1.00;;;;;;5027274;28;20490;-74
2023/03/20 06:06:57;;;;;;;9.30;6.60;;;13.00;1.00;;;;;;5028905;28;20620;-74
2023/03/20 06:09:22;;;;;;;8.40;6.10;;;11.00;1.00;;;;;;5027926;28;20313;-73
2023/03/20 06:11:48;;;;;;;9.00;6.93;;;11.10;1.00;;;;;;5026077;28;20197;-73
2023/03/20 06:14:13;;;;;;;11.57;7.83;;;11.20;1.00;;;;;;5028576;28;20208;-74
2023/03/20 06:16:39;;;;;;;9.80;7.00;;;11.20;1.00;;;;;;5026200;28;20193;-74
2023/03/20 06:19:05;;;;;;;9.27;7.13;;;11.30;1.00;;;;;;5027515;28;20205;-73
2023/03/20 06:21:30;;;;;;;10.57;7.37;;;11.40;1.00;;;;;;5026097;28;20205;-74
2023/03/20 06:23:58;;;;;;;10.47;7.67;;;11.40;1.00;;;;;;5027568;28;20930;-71
2023/03/20 06:26:24;;;;;;;8.57;6.50;;;11.40;1.00;;;;;;5018988;28;20186;-73
2023/03/20 06:28:49;;;;;;;10.27;7.60;;;11.50;1.00;;;;;;5025588;28;20523;-73
2023/03/20 06:31:15;;;;;;;11.10;8.13;;;11.40;1.00;;;;;;5023357;28;20174;-73
2023/03/20 06:33:41;;;;;;;11.27;7.87;;;11.40;1.00;;;;;;5026940;28;20181;-74
2023/03/20 06:36:07;;;;;;;10.40;7.60;;;11.30;1.00;;;;;;5027583;28;20440;-74
2023/03/20 06:38:33;;;;;;;9.90;7.50;;;11.30;1.00;;;;;;5027817;28;20571;-74
2023/03/20 06:40:58;;;;;;;9.70;7.60;;;11.30;1.00;;;;;;5024247;28;20444;-73
2023/03/20 06:43:24;;;;;;;13.50;8.53;;;11.30;1.00;;;;;;5026018;28;20276;-72
2023/03/20 06:45:49;;;;;;;9.53;7.63;;;11.20;1.00;;;;;;5028115;28;20613;-74
2023/03/20 06:48:20;;;;;;;9.70;7.43;;;10.80;1.00;;;;;;5027200;28;20208;-74
2023/03/20 06:50:49;;;;;;;9.70;7.30;;;11.20;1.00;;;;;;5025948;28;20276;-74
2023/03/20 06:53:15;;;;;;;10.83;7.90;;;11.30;1.00;;;;;;5026773;28;20622;-74
2023/03/20 06:55:42;;;;;;;9.77;7.57;;;11.30;1.00;;;;;;5026992;28;20540;-73
2023/03/20 06:58:07;;;;;;;10.60;7.07;;;11.50;1.00;;;;;;5027907;28;20209;-74
2023/03/20 07:00:33;;;;;;;11.40;7.73;;;11.60;1.00;;;;;;5027772;28;20820;-74
2023/03/20 07:02:59;;;;;;;9.80;7.57;;;11.60;1.00;;;;;;5027886;28;20181;-71
2023/03/20 07:05:24;;;;;;;9.70;7.63;;;11.60;1.00;;;;;;5027221;28;20216;-74
2023/03/20 07:07:50;;;;;;;11.17;7.60;;;11.60;1.00;;;;;;5025706;28;20297;-73
2023/03/20 07:10:16;;;;;;;10.00;7.73;;;11.70;1.00;;;;;;5027650;28;20462;-74
2023/03/20 07:12:42;;;;;;;10.20;7.50;;;11.70;1.00;;;;;;5028545;28;20212;-74
2023/03/20 07:15:08;;;;;;;10.60;7.47;;;11.60;1.00;;;;;;5027748;28;20224;-74
2023/03/20 07:17:34;;;;;;;12.53;8.13;;;11.50;1.00;;;;;;5022304;28;20823;-74
2023/03/20 07:20:00;;;;;;;11.30;8.10;;;11.50;1.00;;;;;;5028168;28;20206;-71
2023/03/20 07:22:28;;;;;;;11.00;7.90;;;11.50;1.00;;;;;;5027012;28;20185;-74
2023/03/20 07:24:54;;;;;;;11.00;7.93;;;11.50;1.00;;;;;;5027699;28;20511;-74
2023/03/20 07:27:20;;;;;;;11.00;8.33;;;11.40;1.00;;;;;;5033951;28;20479;-74
2023/03/20 07:29:45;;;;;;;11.33;8.17;;;11.30;1.00;;;;;;5030522;28;20236;-73
2023/03/20 07:32:11;;;;;;;14.03;8.60;;;11.30;1.00;;;;;;5031211;28;20464;-77
2023/03/20 07:34:36;;;;;;;12.80;9.80;;;11.20;1.00;;;;;;5031309;28;20452;-72
2023/03/20 07:37:02;;;;;;;12.83;9.20;;;11.40;1.00;;;;;;5031873;28;20201;-73
2023/03/20 07:39:28;;;;;;;11.57;8.70;;;11.20;1.00;;;;;;5032566;28;20684;-74
2023/03/20 07:41:54;;;;;;;14.17;9.43;;;11.50;1.00;;;;;;5032889;28;20519;-75
2023/03/20 07:44:19;;;;;;;12.30;8.90;;;11.70;1.00;;;;;;5032126;28;20177;-76
2023/03/20 07:46:46;;;;;;;11.73;8.30;;;11.90;1.00;;;;;;5032442;28;20264;-74
2023/03/20 07:49:19;;;;;;;13.50;9.10;;;11.90;1.00;;;;;;5031529;28;20643;-71
2023/03/20 07:51:45;;;;;;;13.00;8.90;;;12.00;1.00;;;;;;4999503;28;20538;-75
2023/03/20 07:54:11;;;;;;;14.80;9.50;;;11.90;1.00;;;;;;5022026;28;20961;-73
2023/03/20 07:56:37;;;;;;;15.53;8.43;;;11.90;1.00;;;;;;5031528;28;20842;-71
2023/03/20 07:59:03;;;;;;;13.17;8.70;;;11.90;1.00;;;;;;5028489;28;20460;-72
2023/03/20 08:01:29;;;;;;;16.70;10.37;;;11.90;1.00;;;;;;5028596;28;20182;-74
2023/03/20 08:03:54;;;;;;;17.67;10.33;;;11.90;1.00;;;;;;5026983;28;20429;-73
2023/03/20 08:06:20;;;;;;;16.43;9.10;;;11.90;1.00;;;;;;5029697;28;20281;-74
2023/03/20 08:08:46;;;;;;;18.07;10.73;;;11.80;1.00;;;;;;5032219;28;20229;-72
2023/03/20 08:11:12;;;;;;;15.00;9.93;;;11.80;1.00;;;;;;5032161;28;20213;-73
2023/03/20 08:13:37;;;;;;;17.23;10.97;;;11.80;1.00;;;;;;5032096;28;20189;-74
2023/03/20 08:16:04;;;;;;;15.67;9.60;;;11.80;1.00;;;;;;5035557;28;20804;-74
2023/03/20 08:18:30;;;;;;;20.00;9.90;;;11.90;1.00;;;;;;5034494;28;20579;-75
2023/03/20 08:20:56;;;;;;;19.27;10.83;;;11.80;1.00;;;;;;5031128;28;20570;-73
2023/03/20 08:23:21;;;;;;;17.67;10.57;;;11.80;1.00;;;;;;5027085;28;20189;-74
2023/03/20 08:25:51;;;;;;;17.97;10.60;;;11.80;1.00;;;;;;5023268;28;20196;-73
2023/03/20 08:28:17;;;;;;;22.93;11.07;;;11.80;1.00;;;;;;5029773;28;20213;-72
2023/03/20 08:30:43;;;;;;;18.87;10.23;;;11.80;1.00;;;;;;5030929;28;20440;-74
2023/03/20 08:33:09;;;;;;;16.27;10.50;;;11.90;1.00;;;;;;5033753;28;20427;-74
2023/03/20 08:35:35;;;;;;;17.73;11.00;;;11.80;1.00;;;;;;5035077;28;20715;-73
2023/03/20 08:38:01;;;;;;;17.17;10.73;;;11.90;1.00;;;;;;5035484;28;20437;-74
2023/03/20 08:40:27;;;;;;;16.93;10.47;;;12.10;1.00;;;;;;5033550;28;20704;-73
2023/03/20 08:42:53;;;;;;;18.07;9.93;;;12.10;1.00;;;;;;5034595;28;20239;-75
2023/03/20 08:45:18;;;;;;;19.30;11.20;;;12.10;1.00;;;;;;5032344;28;20429;-76
2023/03/20 08:47:47;;;;;;;17.73;10.70;;;12.10;1.00;;;;;;5034209;28;20201;-73
2023/03/20 08:50:13;;;;;;;18.47;11.23;;;12.10;1.00;;;;;;5027846;28;20197;-76
2023/03/20 08:52:42;;;;;;;17.40;10.83;;;12.20;1.00;;;;;;5028274;28;20439;-74
2023/03/20 08:55:09;;;;;;;17.50;11.10;;;12.20;1.00;;;;;;5034150;28;20440;-75
2023/03/20 08:57:36;;;;;;;15.77;10.23;;;12.30;1.00;;;;;;5033092;28;20441;-75
2023/03/20 09:00:03;;;;;;;18.83;11.33;;;12.10;1.00;;;;;;5036419;28;20459;-75
2023/03/20 09:02:29;;;;;;;17.50;10.90;;;12.10;1.00;;;;;;5031457;28;20436;-74
2023/03/20 09:04:54;;;;;;;17.70;11.00;;;12.10;1.00;;;;;;5035838;28;20451;-75
2023/03/20 09:07:20;;;;;;;22.40;11.23;;;12.10;1.00;;;;;;5029736;28;20533;-73
2023/03/20 09:09:46;;;;;;;19.53;10.77;;;12.20;1.00;;;;;;5029282;28;20275;-75
2023/03/20 09:12:11;;;;;;;18.47;10.53;;;12.40;1.00;;;;;;5034343;28;20946;-75
2023/03/20 09:14:37;;;;;;;16.70;10.50;;;12.40;1.00;;;;;;5026225;28;20774;-74
2023/03/20 09:17:03;;;;;;;15.80;10.20;;;12.50;1.00;;;;;;5031802;28;20270;-76
2023/03/20 09:19:28;;;;;;;17.40;11.33;;;12.50;1.00;;;;;;5030176;28;20209;-72
2023/03/20 09:21:54;;;;;;;17.97;11.37;;;12.60;1.00;;;;;;5029938;28;20189;-76
2023/03/20 09:24:20;;;;;;;16.70;12.03;;;12.70;1.00;;;;;;5031390;28;20186;-75
2023/03/20 09:26:45;;;;;;;19.93;12.10;;;12.70;1.00;;;;;;5031399;28;20178;-74
2023/03/20 09:29:11;;;;;;;18.83;12.30;;;12.50;1.00;;;;;;5027622;28;20234;-75
2023/03/20 09:31:36;;;;;;;18.80;11.30;;;12.30;1.00;;;;;;5033261;28;20189;-76
2023/03/20 09:34:02;;;;;;;17.63;11.03;;;12.30;1.00;;;;;;5033604;28;20249;-74
2023/03/20 09:36:28;;;;;;;18.70;12.83;;;12.20;1.00;;;;;;5029336;28;20656;-74
2023/03/20 09:38:53;;;;;;;17.90;11.80;;;12.20;1.00;;;;;;5031788;28;20205;-74
2023/03/20 09:41:22;;;;;;;18.93;12.00;;;12.20;1.00;;;;;;5029358;28;20224;-73
2023/03/20 09:44:08;;;;;;;19.27;11.50;;;12.10;1.00;;;;;;5033477;28;20197;-74
2023/03/20 09:46:53;;;;;;;16.50;10.93;;;12.10;1.00;;;;;;5027367;28;20441;-73
2023/03/20 09:49:50;;;;;;;17.27;10.90;;;12.10;1.00;;;;;;5024696;28;20460;-75
2023/03/20 09:52:39;;;;;;;16.70;10.33;;;12.10;1.00;;;;;;5030849;28;20527;-75
2023/03/20 09:55:15;;;;;;;16.80;10.20;;;12.30;1.00;;;;;;5026175;28;20511;-74
2023/03/20 09:57:47;;;;;;;17.67;10.60;;;13.70;1.00;;;;;;5030521;28;20439;-73
2023/03/20 10:00:18;;;;;;;17.20;9.93;;;12.60;1.00;;;;;;5029364;28;21007;-73
2023/03/20 10:02:57;;;;;;;16.67;9.87;;;12.80;1.00;;;;;;5032618;28;20511;-73
2023/03/20 10:05:28;;;;;;;16.97;10.70;;;13.10;1.00;;;;;;5028739;28;20437;-73
2023/03/20 10:08:00;;;;;;;18.17;9.83;;;13.30;1.00;;;;;;5030819;28;20896;-73
2023/03/20 10:10:34;;;;;;;15.07;8.87;;;13.50;1.00;;;;;;5030867;28;20452;-72
2023/03/20 10:13:26;;;;;;;14.97;8.87;;;13.80;1.00;;;;;;5027581;28;20437;-73
2023/03/20 10:16:23;;;;;;;13.60;9.17;;;14.00;1.00;;;;;;5027928;28;20440;-73
2023/03/20 10:19:04;;;;;;;14.23;8.60;;;14.00;1.00;;;;;;5034148;28;20544;-74
2023/03/20 10:21:43;;;;;;;11.97;8.47;;;14.50;1.00;;;;;;5029962;28;20482;-74
2023/03/20 10:24:27;;;;;;;13.10;8.37;;;14.70;1.00;;;;;;5031955;28;20468;-73
2023/03/20 10:26:57;;;;;;;16.40;8.80;;;14.50;1.00;;;;;;5024085;28;20447;-73
2023/03/20 10:29:43;;;;;;;12.33;8.03;;;14.60;1.00;;;;;;5022452;28;20548;-72
2023/03/20 10:32:23;;;;;;;13.03;8.47;;;14.90;1.00;;;;;;5023327;28;20440;-72
2023/03/20 10:35:11;;;;;;;13.00;8.00;;;15.40;1.00;;;;;;5024446;28;21114;-74
2023/03/20 10:37:55;;;;;;;11.50;7.53;;;15.80;1.00;;;;;;5024136;28;20489;-75
2023/03/20 10:40:26;;;;;;;11.50;7.87;;;15.80;1.00;;;;;;5025795;28;20546;-72
2023/03/20 10:42:56;;;;;;;11.37;7.03;;;15.90;1.00;;;;;;5024556;28;21009;-75
2023/03/20 10:45:49;;;;;;;11.50;7.80;;;15.90;1.00;;;;;;5024801;28;20451;-75
2023/03/20 10:48:30;;;;;;;13.13;7.73;;;16.10;1.00;;;;;;5025483;28;20468;-73
2023/03/20 10:51:00;;;;;;;14.97;7.30;;;16.60;1.00;;;;;;5021495;28;20531;-74
2023/03/20 10:53:33;;;;;;;9.83;7.47;;;17.10;1.00;;;;;;5027679;28;20919;-74
2023/03/20 10:56:04;;;;;;;10.37;7.67;;;17.10;1.00;;;;;;5026032;28;20539;-75
2023/03/20 10:58:36;;;;;;;9.87;6.60;;;17.20;1.00;;;;;;5025149;28;20517;-75
2023/03/20 11:01:02;;;;;;;9.57;7.13;;;16.80;1.00;;;;;;5026184;28;20467;-75
2023/03/20 11:03:30;;;;;;;10.60;7.17;;;16.90;1.00;;;;;;5027836;28;20436;-75
2023/03/20 11:06:18;;;;;;;10.00;6.53;;;16.80;1.00;;;;;;5029349;28;20519;-75
2023/03/20 11:08:49;;;;;;;10.90;6.97;;;17.70;1.00;;;;;;5021467;28;20517;-74
2023/03/20 11:11:33;;;;;;;9.90;7.47;;;18.10;1.00;;;;;;5032247;28;20482;-74
2023/03/20 11:14:14;;;;;;;9.57;7.50;;;17.60;1.00;;;;;;5023812;28;20435;-74
2023/03/20 11:16:40;;;;;;;10.90;7.07;;;16.60;1.00;;;;;;5016510;28;20443;-74
2023/03/20 11:19:09;;;;;;;11.30;7.17;;;16.20;1.00;;;;;;5032886;28;20452;-74
2023/03/20 11:21:45;;;;;;;9.23;6.10;;;15.80;1.00;;;;;;5029910;28;20193;-74
2023/03/20 11:24:43;;;;;;;9.33;6.70;;;16.00;1.00;;;;;;5028380;28;20948;-73
2023/03/20 11:27:18;;;;;;;9.60;6.40;;;16.70;1.00;;;;;;5028385;28;20526;-74
2023/03/20 11:29:49;;;;;;;10.27;6.30;;;17.30;1.00;;;;;;5019659;28;20519;-76
2023/03/20 11:32:32;;;;;;;8.57;6.20;;;17.50;1.00;;;;;;5032500;28;20424;-72
2023/03/20 11:35:22;;;;;;;9.20;6.50;;;18.40;1.00;;;;;;5031964;28;20420;-73
2023/03/20 11:37:51;;;;;;;7.47;6.03;;;18.80;1.00;;;;;;5031340;28;20432;-73
2023/03/20 11:40:28;;;;;;;12.43;5.80;;;19.10;1.00;;;;;;5030566;28;20436;-74
2023/03/20 11:43:00;;;;;;;9.03;6.10;;;18.70;1.00;;;;;;5031959;28;20885;-73
2023/03/20 11:45:27;;;;;;;9.63;6.23;;;18.50;1.00;;;;;;5029010;28;20424;-74
2023/03/20 11:47:55;;;;;;;11.40;5.97;;;19.80;1.00;;;;;;5032970;28;20521;-74
2023/03/20 11:50:31;;;;;;;63.17;25.17;;;19.80;1.00;;;;;;5030693;28;20443;-73
2023/03/20 11:52:57;;;;;;;23.50;11.53;;;20.30;1.00;;;;;;5032327;28;20467;-73
2023/03/20 11:55:27;;;;;;;36.43;15.83;;;20.70;1.00;;;;;;5029362;28;21367;-74
2023/03/20 11:57:58;;;;;;;25.63;13.30;;;21.00;1.00;;;;;;5032876;28;20273;-73
2023/03/20 12:00:27;;;;;;;10.17;6.20;;;21.60;1.00;;;;;;5028793;28;20550;-73
2023/03/20 12:02:52;;;;;;;8.27;5.80;;;21.50;1.00;;;;;;5027699;28;20421;-75
2023/03/20 12:05:30;;;;;;;7.47;5.53;;;21.60;1.00;;;;;;5030967;28;20801;-74
2023/03/20 12:08:08;;;;;;;7.00;5.30;;;22.90;1.00;;;;;;5032617;28;20212;-73
2023/03/20 12:10:38;;;;;;;7.07;5.00;;;24.20;1.00;;;;;;5029862;28;20443;-75
2023/03/20 12:13:11;;;;;;;6.73;4.80;;;25.10;1.00;;;;;;5028767;28;20496;-73
2023/03/20 12:15:45;;;;;;;7.43;5.40;;;23.90;1.00;;;;;;5030074;28;20428;-73
2023/03/20 12:18:24;;;;;;;7.63;5.20;;;22.00;1.00;;;;;;5034756;28;20431;-76
2023/03/20 12:21:05;;;;;;;7.63;4.93;;;20.70;1.00;;;;;;5028559;28;20451;-74
2023/03/20 12:24:21;;;;;;;6.87;4.60;;;19.80;1.00;;;;;;5034412;28;20432;-75
2023/03/20 12:26:46;;;;;;;6.30;4.17;;;18.90;1.00;;;;;;4990120;28;20523;-74
2023/03/20 12:29:20;;;;;;;7.30;4.20;;;18.60;1.00;;;;;;5030410;28;20559;-73
2023/03/20 12:31:51;;;;;;;5.63;3.97;;;18.40;1.00;;;;;;5029098;28;20550;-74
2023/03/20 12:34:49;;;;;;;6.90;4.33;;;18.30;1.00;;;;;;5032523;28;20466;-75
2023/03/20 12:37:17;;;;;;;6.43;4.17;;;18.40;1.00;;;;;;5031514;28;20424;-73
2023/03/20 12:39:53;;;;;;;6.67;4.10;;;18.40;1.00;;;;;;5025531;28;20475;-74
2023/03/20 12:42:40;;;;;;;6.17;3.97;;;18.60;1.00;;;;;;5031707;28;20432;-74
2023/03/20 12:45:08;;;;;;;6.10;4.10;;;;;;;;;;5018928;28;20962;-74
2023/03/20 12:47:46;;;;;;;5.47;3.70;;;20.00;1.00;;;;;;5032059;28;20463;-74
2023/03/20 12:50:31;;;;;;;6.83;4.40;;;19.90;1.00;;;;;;5034866;28;21053;-72
2023/03/20 12:53:26;;;;;;;5.80;4.07;;;19.70;1.00;;;;;;5032487;28;20436;-73
2023/03/20 12:56:22;;;;;;;5.23;3.40;;;20.00;1.00;;;;;;5032890;28;20575;-72
2023/03/20 12:59:02;;;;;;;8.53;3.50;;;20.00;1.00;;;;;;5030199;28;20495;-73
2023/03/20 13:01:39;;;;;;;5.27;3.10;;;19.70;1.00;;;;;;5034111;28;20432;-75
2023/03/20 13:04:19;;;;;;;7.13;2.80;;;19.10;1.00;;;;;;5023381;28;20437;-71
2023/03/20 13:06:55;;;;;;;4.63;3.03;;;19.10;1.00;;;;;;5032292;28;20447;-72
2023/03/20 13:09:47;;;;;;;4.60;2.80;;;19.60;1.00;;;;;;5031485;28;20471;-73
2023/03/20 13:12:25;;;;;;;6.77;3.00;;;21.10;1.00;;;;;;5033390;28;20432;-75